Time;durP1;ratioP1;P1;durP2;ratioP2;P2;SDS_P1;SDS_P2;PMS_P1;PMS_P2;Temp;Humidity;BMP_temperature;BMP_pressure;BME280_temperature;BME280_humidity;BME280_pressure;Samples;Min_cycle;Max_cycle;Signal;HPM_P1;HPM_P2
2022/09/28 00:00:32;;;;;;;;;;;;;;;14.09;100.00;96920.88;5051070;28;20713;-44
2022/09/28 00:02:57;;;;;;;;;;;;;;;13.98;100.00;96902.78;5053446;28;19925;-44
2022/09/28 00:05:25;;;;;;;;;;;;;;;14.17;100.00;96896.97;5051203;28;19921;-44
2022/09/28 00:07:51;;;;;;;;;;;;;;;14.09;100.00;96894.97;5052371;28;19921;-44
2022/09/28 00:10:16;;;;;;;;;;;;;;;13.06;100.00;96897.78;5033814;28;20316;-43
2022/09/28 00:12:41;;;;;;;;;;;;;;;13.64;100.00;96900.28;5026478;28;19932;-43
2022/09/28 00:15:07;;;;;;;;;;;;;;;14.05;100.00;96898.78;5052531;28;19920;-43
2022/09/28 00:17:32;;;;;;;;;;;;;;;14.37;100.00;96887.59;5051520;28;19924;-44
2022/09/28 00:19:57;;;;;;;;;;;;;;;14.70;100.00;96888.41;5052479;28;19920;-43
2022/09/28 00:22:22;;;;;;;;;;;;;;;14.71;100.00;96879.66;5052992;28;19921;-43
2022/09/28 00:24:48;;;;;;;;;;;;;;;14.59;100.00;96882.31;5051723;28;19927;-43
2022/09/28 00:27:13;;;;;;;;;;;;;;;14.79;100.00;96882.47;5051481;28;19920;-43
2022/09/28 00:29:38;;;;;;;;;;;;;;;14.36;100.00;96885.94;5051902;28;19921;-43
2022/09/28 00:32:09;;;;;;;;;;;;;;;14.47;100.00;96878.13;5052115;28;20094;-43
2022/09/28 00:34:40;;;;;;;;;;;;;;;14.19;100.00;96885.56;5033928;28;19925;-43
2022/09/28 00:37:07;;;;;;;;;;;;;;;13.64;100.00;96883.91;5050509;28;19932;-44
2022/09/28 00:39:34;;;;;;;;;;;;;;;14.17;100.00;96876.28;5034889;28;20448;-44
2022/09/28 00:42:00;;;;;;;;;;;;;;;14.28;100.00;96875.38;5051395;28;19925;-43
2022/09/28 00:44:25;;;;;;;;;;;;;;;14.40;100.00;96866.63;5034615;28;19946;-43
2022/09/28 00:47:10;;;;;;;;;;;;;;;14.41;100.00;96869.09;5050617;28;19921;-44
2022/09/28 00:49:40;;;;;;;;;;;;;;;14.21;100.00;96868.13;5023913;28;19936;-43
2022/09/28 00:52:05;;;;;;;;;;;;;;;13.98;100.00;96863.97;5033686;28;19924;-43
2022/09/28 00:54:31;;;;;;;;;;;;;;;14.04;100.00;96866.06;5051998;28;19921;-44
2022/09/28 00:56:56;;;;;;;;;;;;;;;13.59;100.00;96868.75;5032373;28;19925;-44
2022/09/28 00:59:23;;;;;;;;;;;;;;;13.69;100.00;96874.88;5049898;28;19924;-43
2022/09/28 01:01:49;;;;;;;;;;;;;;;13.58;100.00;96874.91;5050915;28;19978;-43
2022/09/28 01:04:14;;;;;;;;;;;;;;;13.68;100.00;96873.22;5051900;28;20348;-43
2022/09/28 01:06:40;;;;;;;;;;;;;;;13.78;100.00;96866.38;5030859;28;20395;-43
2022/09/28 01:09:06;;;;;;;;;;;;;;;13.40;100.00;96869.38;5050220;28;20376;-43
2022/09/28 01:11:32;;;;;;;;;;;;;;;13.45;100.00;96866.44;5031661;28;20429;-43
2022/09/28 01:13:57;;;;;;;;;;;;;;;13.78;100.00;96865.56;5051010;28;20031;-43
2022/09/28 01:16:25;;;;;;;;;;;;;;;13.87;100.00;96858.84;5032601;28;19926;-43
2022/09/28 01:18:56;;;;;;;;;;;;;;;13.65;100.00;96864.88;5049592;28;20406;-43
2022/09/28 01:21:22;;;;;;;;;;;;;;;13.60;100.00;96862.66;5050996;28;19925;-43
2022/09/28 01:23:56;;;;;;;;;;;;;;;13.54;100.00;96868.31;5050924;28;20593;-43
2022/09/28 01:26:41;;;;;;;;;;;;;;;14.25;100.00;96860.09;5049186;28;20381;-43
2022/09/28 01:29:18;;;;;;;;;;;;;;;13.52;100.00;96857.25;5051239;28;19927;-43
2022/09/28 01:31:45;;;;;;;;;;;;;;;13.54;100.00;96863.13;5031928;28;19920;-43
2022/09/28 01:34:15;;;;;;;;;;;;;;;13.48;100.00;96864.44;5032866;28;20789;-43
2022/09/28 01:36:47;;;;;;;;;;;;;;;13.54;100.00;96860.56;5031212;28;21286;-43
2022/09/28 01:39:17;;;;;;;;;;;;;;;13.11;100.00;96871.59;5022376;28;19924;-43
2022/09/28 01:41:42;;;;;;;;;;;;;;;13.58;100.00;96864.56;5049577;28;19964;-43
2022/09/28 01:44:09;;;;;;;;;;;;;;;13.71;100.00;96861.84;5032291;28;20011;-43
2022/09/28 01:46:40;;;;;;;;;;;;;;;13.44;100.00;96862.22;5030944;28;19921;-43
2022/09/28 01:49:15;;;;;;;;;;;;;;;13.35;100.00;96861.19;5032662;28;19924;-43
2022/09/28 01:51:40;;;;;;;;;;;;;;;13.17;100.00;96865.97;5050821;28;19920;-43
2022/09/28 01:54:12;;;;;;;;;;;;;;;13.13;100.00;96855.03;5050485;28;19931;-43
2022/09/28 01:56:44;;;;;;;;;;;;;;;13.91;100.00;96860.22;5048722;28;19920;-43
2022/09/28 01:59:19;;;;;;;;;;;;;;;13.74;100.00;96854.63;5031739;28;19920;-43
2022/09/28 02:01:48;;;;;;;;;;;;;;;13.35;100.00;96854.22;5032565;28;19924;-43
2022/09/28 02:04:15;;;;;;;;;;;;;;;13.20;100.00;96850.22;5049773;28;19920;-43
2022/09/28 02:07:03;;;;;;;;;;;;;;;12.97;100.00;96857.16;5030454;28;19920;-43
2022/09/28 02:09:38;;;;;;;;;;;;;;;13.12;100.00;96852.56;5021063;28;19920;-44
2022/09/28 02:12:06;;;;;;;;;;;;;;;13.16;100.00;96852.22;5049343;28;19960;-43
2022/09/28 02:14:31;;;;;;;;;;;;;;;13.29;100.00;96848.72;5032766;28;19921;-43
2022/09/28 02:16:57;;;;;;;;;;;;;;;13.29;100.00;96848.72;5031838;28;19927;-43
2022/09/28 02:19:24;;;;;;;;;;;;;;;13.59;100.00;96856.69;5050441;28;19920;-43
2022/09/28 02:21:52;;;;;;;;;;;;;;;13.58;100.00;96855.03;5032593;28;19929;-43
2022/09/28 02:24:22;;;;;;;;;;;;;;;13.90;100.00;96848.25;5057857;28;19920;-43
2022/09/28 02:26:47;;;;;;;;;;;;;;;13.70;100.00;96840.28;5037131;28;19924;-43
2022/09/28 02:29:12;;;;;;;;;;;;;;;13.06;100.00;96847.88;5037050;28;19916;-43
2022/09/28 02:31:38;;;;;;;;;;;;;;;12.03;100.00;96860.69;5056624;28;19916;-43
2022/09/28 02:34:03;;;;;;;;;;;;;;;11.87;100.00;96878.97;5056640;28;20370;-43
2022/09/28 02:36:28;;;;;;;;;;;;;;;12.34;100.00;96888.47;5037445;28;19920;-43
2022/09/28 02:38:54;;;;;;;;;;;;;;;12.29;100.00;96894.91;5055203;28;19928;-43
2022/09/28 02:41:39;;;;;;;;;;;;;;;11.52;100.00;96902.91;5055861;28;19973;-43
2022/09/28 02:44:07;;;;;;;;;;;;;;;12.25;100.00;96921.88;5040542;28;19999;-43
2022/09/28 02:46:51;;;;;;;;;;;;;;;11.83;100.00;96923.97;5055863;28;20015;-43
2022/09/28 02:49:19;;;;;;;;;;;;;;;12.40;100.00;96933.66;5056413;28;19926;-43
2022/09/28 02:51:48;;;;;;;;;;;;;;;12.73;100.00;96926.97;5057040;28;19923;-43
2022/09/28 02:54:13;;;;;;;;;;;;;;;11.85;100.00;96922.09;5037725;28;20362;-43
2022/09/28 02:56:42;;;;;;;;;;;;;;;11.61;100.00;96933.22;5055947;28;19923;-43
2022/09/28 02:59:27;;;;;;;;;;;;;;;11.63;100.00;96944.25;5055029;28;19920;-43
2022/09/28 03:01:59;;;;;;;;;;;;;;;11.36;100.00;96956.41;5055081;28;19924;-43
2022/09/28 03:04:28;;;;;;;;;;;;;;;11.14;100.00;96968.19;5037289;28;20010;-43
2022/09/28 03:06:59;;;;;;;;;;;;;;;11.64;100.00;96971.66;5054274;28;19924;-43
2022/09/28 03:09:39;;;;;;;;;;;;;;;12.23;100.00;96972.78;5038500;28;20344;-43
2022/09/28 03:12:08;;;;;;;;;;;;;;;11.22;100.00;96976.25;5037716;28;19980;-43
2022/09/28 03:14:33;;;;;;;;;;;;;;;11.06;100.00;96991.91;5037318;28;20369;-43
2022/09/28 03:16:58;;;;;;;;;;;;;;;11.88;100.00;96999.28;5036853;28;19925;-43
2022/09/28 03:19:24;;;;;;;;;;;;;;;11.37;100.00;97004.47;5055656;28;20278;-43
2022/09/28 03:21:50;;;;;;;;;;;;;;;11.50;100.00;97006.13;5056853;28;19929;-44
2022/09/28 03:24:15;;;;;;;;;;;;;;;11.82;100.00;96999.69;5055410;28;19927;-43
2022/09/28 03:26:40;;;;;;;;;;;;;;;12.14;100.00;96994.91;5055952;28;19924;-43
2022/09/28 03:29:05;;;;;;;;;;;;;;;12.52;100.00;96981.84;5055285;28;19920;-43
2022/09/28 03:31:30;;;;;;;;;;;;;;;12.70;100.00;96971.09;5056593;28;19925;-43
2022/09/28 03:33:56;;;;;;;;;;;;;;;12.99;100.00;96968.94;5053699;28;19924;-44
2022/09/28 03:36:21;;;;;;;;;;;;;;;12.53;100.00;96946.50;5050708;28;19974;-43
2022/09/28 03:38:46;;;;;;;;;;;;;;;12.33;100.00;96953.13;5053249;28;19927;-44
2022/09/28 03:41:12;;;;;;;;;;;;;;;13.24;100.00;96952.44;5051444;28;19921;-44
2022/09/28 03:43:37;;;;;;;;;;;;;;;12.61;100.00;96930.44;5051535;28;19966;-44
2022/09/28 03:46:02;;;;;;;;;;;;;;;12.59;100.00;96933.16;5051277;28;20381;-44
2022/09/28 03:48:29;;;;;;;;;;;;;;;12.86;100.00;96930.28;5052281;28;19917;-44
2022/09/28 03:50:54;;;;;;;;;;;;;;;13.12;100.00;96930.09;5034490;28;19951;-45
2022/09/28 03:53:20;;;;;;;;;;;;;;;13.03;100.00;96926.44;5051895;28;20333;-45
2022/09/28 03:55:45;;;;;;;;;;;;;;;12.81;100.00;96924.63;5051025;28;19932;-44
2022/09/28 03:58:10;;;;;;;;;;;;;;;12.90;100.00;96921.38;5052528;28;19928;-44
2022/09/28 04:00:36;;;;;;;;;;;;;;;12.79;100.00;96917.94;5052231;28;19971;-44
2022/09/28 04:03:01;;;;;;;;;;;;;;;12.83;100.00;96920.19;5052570;28;19982;-44
2022/09/28 04:05:27;;;;;;;;;;;;;;;12.66;100.00;96925.78;5051082;28;19991;-44
2022/09/28 04:07:54;;;;;;;;;;;;;;;13.19;100.00;96921.75;5051777;28;19917;-44
2022/09/28 04:10:20;;;;;;;;;;;;;;;13.12;100.00;96914.59;5051690;28;19921;-45
2022/09/28 04:12:45;;;;;;;;;;;;;;;13.56;100.00;96900.88;5050472;28;19920;-44
2022/09/28 04:15:10;;;;;;;;;;;;;;;13.06;100.00;96894.38;5052251;28;20405;-44
2022/09/28 04:17:36;;;;;;;;;;;;;;;12.76;100.00;96906.09;5051276;28;20626;-44
2022/09/28 04:20:02;;;;;;;;;;;;;;;12.62;100.00;96906.28;5051693;28;20412;-44
2022/09/28 04:22:28;;;;;;;;;;;;;;;12.92;100.00;96909.16;5051331;28;19932;-44
2022/09/28 04:24:53;;;;;;;;;;;;;;;12.89;100.00;96904.22;5051650;28;20392;-44
2022/09/28 04:30:02;;;;;;;;;;;;;;;12.95;100.00;96908.94;5053070;28;20300;-45
2022/09/28 04:32:27;;;;;;;;;;;;;;;13.71;100.00;96893.69;5052712;28;19920;-44
2022/09/28 04:34:53;;;;;;;;;;;;;;;13.76;100.00;96883.78;5044809;28;19972;-44
2022/09/28 04:37:18;;;;;;;;;;;;;;;13.77;100.00;96875.06;5048028;28;19951;-44
2022/09/28 04:39:43;;;;;;;;;;;;;;;12.88;100.00;96876.75;5050093;28;19921;-44
2022/09/28 04:42:09;;;;;;;;;;;;;;;12.55;100.00;96890.44;5050157;28;20020;-44
2022/09/28 04:44:34;;;;;;;;;;;;;;;13.08;100.00;96890.75;5051206;28;19956;-44
2022/09/28 04:46:59;;;;;;;;;;;;;;;13.51;100.00;96886.66;5047784;28;19960;-44
2022/09/28 04:49:24;;;;;;;;;;;;;;;13.49;100.00;96891.13;5051196;28;19962;-44
2022/09/28 04:51:50;;;;;;;;;;;;;;;12.98;100.00;96888.03;5050063;28;19983;-44
2022/09/28 04:54:15;;;;;;;;;;;;;;;12.80;100.00;96892.00;5050489;28;19920;-44
2022/09/28 04:56:40;;;;;;;;;;;;;;;12.47;100.00;96898.72;5051353;28;19972;-44
2022/09/28 04:59:05;;;;;;;;;;;;;;;12.48;100.00;96910.72;5050381;28;19959;-44
2022/09/28 05:01:31;;;;;;;;;;;;;;;12.84;100.00;96911.50;5051343;28;19955;-44
2022/09/28 05:03:56;;;;;;;;;;;;;;;12.91;100.00;96915.28;5051336;28;19924;-44
2022/09/28 05:06:21;;;;;;;;;;;;;;;13.47;100.00;96904.16;5047964;28;19935;-44
2022/09/28 05:08:47;;;;;;;;;;;;;;;13.55;100.00;96890.66;5051759;28;19921;-44
2022/09/28 05:11:12;;;;;;;;;;;;;;;13.19;100.00;96879.59;5050400;28;19921;-44
2022/09/28 05:13:40;;;;;;;;;;;;;;;13.84;100.00;96882.34;5051660;28;19916;-45
2022/09/28 05:16:06;;;;;;;;;;;;;;;13.19;100.00;96880.41;5050898;28;20010;-45
2022/09/28 05:18:31;;;;;;;;;;;;;;;13.30;100.00;96882.22;5049687;28;20734;-44
2022/09/28 05:20:56;;;;;;;;;;;;;;;13.18;100.00;96888.28;5050698;28;19925;-44
2022/09/28 05:23:22;;;;;;;;;;;;;;;13.16;100.00;96891.00;5049072;28;19920;-45
2022/09/28 05:25:47;;;;;;;;;;;;;;;13.29;100.00;96893.47;5049347;28;19974;-44
2022/09/28 05:28:12;;;;;;;;;;;;;;;12.87;100.00;96890.59;5049574;28;19917;-45
2022/09/28 05:30:37;;;;;;;;;;;;;;;11.90;100.00;96902.00;5050465;28;19920;-44
2022/09/28 05:33:03;;;;;;;;;;;;;;;11.62;100.00;96932.25;5049668;28;19921;-44
2022/09/28 05:35:28;;;;;;;;;;;;;;;11.37;100.00;96958.09;5030517;28;19943;-44
2022/09/28 05:37:54;;;;;;;;;;;;;;;12.02;100.00;96970.78;5049210;28;19928;-44
2022/09/28 05:40:19;;;;;;;;;;;;;;;11.76;100.00;96969.16;5030788;28;19971;-44
2022/09/28 05:42:44;;;;;;;;;;;;;;;11.19;100.00;96981.56;5049547;28;19920;-45
2022/09/28 05:45:09;;;;;;;;;;;;;;;10.86;100.00;97000.09;5050300;28;19946;-45
2022/09/28 05:47:41;;;;;;;;;;;;;;;10.54;100.00;97009.91;5048623;28;19920;-45
2022/09/28 05:50:07;;;;;;;;;;;;;;;10.84;100.00;97046.53;5050650;28;20372;-44
2022/09/28 05:52:32;;;;;;;;;;;;;;;11.36;100.00;97062.06;5049193;28;19947;-44
2022/09/28 05:54:58;;;;;;;;;;;;;;;10.97;100.00;97064.63;5051708;28;19920;-44
2022/09/28 05:57:23;;;;;;;;;;;;;;;10.55;100.00;97078.47;5049927;28;19969;-44
2022/09/28 05:59:48;;;;;;;;;;;;;;;10.52;100.00;97099.25;5049815;28;19924;-44
2022/09/28 06:02:13;;;;;;;;;;;;;;;10.64;100.00;97114.75;5050249;28;19924;-44
2022/09/28 06:04:38;;;;;;;;;;;;;;;10.72;100.00;97127.16;5050268;28;19927;-44
2022/09/28 06:07:04;;;;;;;;;;;;;;;10.76;100.00;97143.22;5049574;28;20031;-44
2022/09/28 06:09:29;;;;;;;;;;;;;;;10.55;100.00;97147.94;5048670;28;20007;-44
2022/09/28 06:11:54;;;;;;;;;;;;;;;10.94;100.00;97172.13;5051748;28;20163;-44
2022/09/28 06:14:19;;;;;;;;;;;;;;;10.24;100.00;97170.34;5030940;28;20002;-44
2022/09/28 06:16:46;;;;;;;;;;;;;;;11.28;100.00;97191.44;5048981;28;19917;-44
2022/09/28 06:19:11;;;;;;;;;;;;;;;11.33;100.00;97184.22;5031568;28;19997;-44
2022/09/28 06:21:37;;;;;;;;;;;;;;;10.78;100.00;97174.84;5049718;28;20501;-44
2022/09/28 06:24:03;;;;;;;;;;;;;;;10.72;100.00;97177.78;5050664;28;19935;-44
2022/09/28 06:26:28;;;;;;;;;;;;;;;10.93;100.00;97191.09;5049488;28;19917;-44
2022/09/28 06:28:54;;;;;;;;;;;;;;;10.64;100.00;97186.81;5049242;28;19970;-44
2022/09/28 06:31:22;;;;;;;;;;;;;;;10.57;100.00;97185.53;5050373;28;20274;-44
2022/09/28 06:33:48;;;;;;;;;;;;;;;10.57;100.00;97200.16;5050066;28;19960;-44
2022/09/28 06:36:13;;;;;;;;;;;;;;;10.86;100.00;97206.94;5049872;28;19956;-44
2022/09/28 06:38:38;;;;;;;;;;;;;;;10.70;100.00;97195.94;5048592;28;19921;-44
2022/09/28 06:41:04;;;;;;;;;;;;;;;10.82;100.00;97205.47;5050712;28;19983;-44
2022/09/28 06:43:29;;;;;;;;;;;;;;;10.84;100.00;97203.63;5048222;28;20444;-44
2022/09/28 06:45:54;;;;;;;;;;;;;;;11.07;100.00;97209.09;5049038;28;19952;-44
2022/09/28 06:48:19;;;;;;;;;;;;;;;11.38;100.00;97212.28;5049651;28;19920;-44
2022/09/28 06:50:46;;;;;;;;;;;;;;;11.26;100.00;97201.00;5048711;28;19917;-44
2022/09/28 06:53:15;;;;;;;;;;;;;;;11.36;100.00;97202.09;5049017;28;19927;-44
2022/09/28 06:55:40;;;;;;;;;;;;;;;11.86;100.00;97202.28;5032183;28;20041;-44
2022/09/28 06:58:06;;;;;;;;;;;;;;;11.34;100.00;97187.66;5049417;28;19920;-44
2022/09/28 07:00:33;;;;;;;;;;;;;;;11.33;100.00;97184.22;5031991;28;19931;-45
2022/09/28 07:02:58;;;;;;;;;;;;;;;11.69;100.00;97186.19;5048859;28;19917;-44
2022/09/28 07:05:27;;;;;;;;;;;;;;;11.66;100.00;97178.66;5047402;28;20397;-45
2022/09/28 07:07:56;;;;;;;;;;;;;;;12.19;100.00;97182.94;5022747;28;20301;-45
2022/09/28 07:10:22;;;;;;;;;;;;;;;12.23;100.00;97163.75;5051025;28;19925;-45
2022/09/28 07:12:48;;;;;;;;;;;;;;;12.04;100.00;97164.16;5035261;28;20309;-45
2022/09/28 07:15:13;;;;;;;;;;;;;;;12.63;100.00;97163.56;5033560;28;19916;-45
2022/09/28 07:17:38;;;;;;;;;;;;;;;12.06;100.00;97164.88;5052200;28;19991;-44
2022/09/28 07:20:04;;;;;;;;;;;;;;;11.84;100.00;97170.63;5052960;28;19931;-44
2022/09/28 07:22:29;;;;;;;;;;;;;;;12.72;100.00;97181.00;5053004;28;19920;-44
2022/09/28 07:24:55;;;;;;;;;;;;;;;12.12;100.00;97162.72;5053926;28;20361;-45
2022/09/28 07:27:21;;;;;;;;;;;;;;;12.51;100.00;97167.84;5051339;28;19929;-45
2022/09/28 07:29:46;;;;;;;;;;;;;;;12.43;100.00;97155.47;5053067;28;19920;-45
2022/09/28 07:32:11;;;;;;;;;;;;;;;12.42;100.00;97152.97;5052935;28;19917;-45
2022/09/28 07:34:42;;;;;;;;;;;;;;;12.76;100.00;97154.03;5053165;28;20003;-45
2022/09/28 07:37:09;;;;;;;;;;;;;;;12.82;100.00;97140.69;5053624;28;19947;-44
2022/09/28 07:41:10;;;;;;;;;;;;;;;12.42;100.00;97143.47;5051636;28;20301;-48
2022/09/28 07:42:20;;;;;;;;;;;;;;;12.59;100.00;97136.31;5053682;28;20556;-45
2022/09/28 07:44:45;;;;;;;;;;;;;;;12.72;100.00;97135.34;5052362;28;19931;-45
2022/09/28 07:47:10;;;;;;;;;;;;;;;12.39;100.00;97128.22;5051893;28;19931;-45
2022/09/28 07:49:36;;;;;;;;;;;;;;;13.00;100.00;97124.81;5053022;28;19920;-45
2022/09/28 07:52:01;;;;;;;;;;;;;;;12.78;100.00;97103.09;5052847;28;19930;-44
2022/09/28 07:54:26;;;;;;;;;;;;;;;13.10;100.00;97118.03;5051770;28;20962;-45
2022/09/28 07:56:51;;;;;;;;;;;;;;;13.94;100.00;97111.00;5027186;28;19921;-45
2022/09/28 07:59:17;;;;;;;;;;;;;;;14.16;100.00;97087.72;5052920;28;19931;-45
2022/09/28 08:01:42;;;;;;;;;;;;;;;13.77;100.00;97071.69;5052388;28;19921;-47
2022/09/28 08:04:07;;;;;;;;;;;;;;;14.25;100.00;97065.44;5053679;28;20326;-45
2022/09/28 08:06:33;;;;;;;;;;;;;;;14.60;100.00;97060.13;5049333;28;19946;-45
2022/09/28 08:09:00;;;;;;;;;;;;;;;14.49;100.00;97036.81;5053004;28;19948;-45
2022/09/28 08:11:25;;;;;;;;;;;;;;;14.04;100.00;97031.72;5052079;28;19920;-45
2022/09/28 08:13:54;;;;;;;;;;;;;;;14.19;100.00;97035.69;5052700;28;19920;-45
2022/09/28 08:16:19;;;;;;;;;;;;;;;13.31;100.00;97049.28;5051695;28;20270;-45
2022/09/28 08:18:47;;;;;;;;;;;;;;;13.83;100.00;97064.41;5052698;28;19928;-45
2022/09/28 08:23:56;;;;;;;;;;;;;;;13.79;100.00;97062.03;5052759;28;20416;-45
2022/09/28 08:26:21;;;;;;;;;;;;;;;13.51;100.00;97065.91;5053060;28;19924;-45
2022/09/28 08:28:46;;;;;;;;;;;;;;;13.87;100.00;97065.84;5050645;28;19928;-45
2022/09/28 08:31:12;;;;;;;;;;;;;;;13.28;100.00;97057.28;5051555;28;19920;-45
2022/09/28 08:33:37;;;;;;;;;;;;;;;12.75;100.00;97073.16;5051567;28;19927;-45
2022/09/28 08:36:03;;;;;;;;;;;;;;;13.70;100.00;97082.63;5033545;28;20454;-45
2022/09/28 08:38:29;;;;;;;;;;;;;;;13.71;100.00;97082.53;5052413;28;19920;-45
2022/09/28 08:41:02;;;;;;;;;;;;;;;12.98;100.00;97063.75;5051060;28;19931;-45
2022/09/28 08:43:40;;;;;;;;;;;;;;;13.19;100.00;97076.03;5032914;28;19967;-45
2022/09/28 08:46:05;;;;;;;;;;;;;;;13.57;100.00;97085.28;5049885;28;20046;-45
2022/09/28 08:48:44;;;;;;;;;;;;;;;13.40;100.00;97086.56;5050649;28;20066;-45
2022/09/28 08:51:14;;;;;;;;;;;;;;;13.47;100.00;97084.34;5036113;28;20023;-45
2022/09/28 08:53:58;;;;;;;;;;;;;;;13.89;100.00;97085.47;5032987;28;19916;-45
2022/09/28 08:56:28;;;;;;;;;;;;;;;14.12;100.00;97073.38;5051194;28;19966;-45
2022/09/28 08:58:55;;;;;;;;;;;;;;;13.49;100.00;97078.13;5051297;28;20366;-45
2022/09/28 09:01:21;;;;;;;;;;;;;;;13.56;100.00;97089.66;5034074;28;19942;-45
2022/09/28 09:03:46;;;;;;;;;;;;;;;13.76;100.00;97080.41;5033487;28;20354;-45
2022/09/28 09:06:43;;;;;;;;;;;;;;;13.34;100.00;97093.03;5044717;28;21227;-45
2022/09/28 09:09:12;;;;;;;;;;;;;;;14.37;100.00;97094.78;5007371;28;19946;-45
2022/09/28 09:11:40;;;;;;;;;;;;;;;14.31;100.00;97072.75;5033289;28;19920;-45
2022/09/28 09:14:26;;;;;;;;;;;;;;;14.11;100.00;97076.88;5051954;28;19923;-44
2022/09/28 09:16:54;;;;;;;;;;;;;;;13.95;100.00;97079.81;5031986;28;19920;-45
2022/09/28 09:19:43;;;;;;;;;;;;;;;14.12;100.00;97075.94;5051170;28;20161;-45
2022/09/28 09:22:11;;;;;;;;;;;;;;;14.31;100.00;97070.16;5039936;28;19920;-45
2022/09/28 09:24:42;;;;;;;;;;;;;;;13.77;100.00;97076.84;5050427;28;19916;-45
2022/09/28 09:27:35;;;;;;;;;;;;;;;13.64;100.00;97089.09;5051540;28;19921;-45
2022/09/28 09:30:08;;;;;;;;;;;;;;;13.80;100.00;97086.19;5047048;28;19916;-45
2022/09/28 09:32:42;;;;;;;;;;;;;;;13.62;100.00;97080.63;5031206;28;19963;-45
2022/09/28 09:35:16;;;;;;;;;;;;;;;13.16;100.00;97092.59;5049532;28;19987;-45
2022/09/28 09:38:00;;;;;;;;;;;;;;;13.15;100.00;97100.44;5050203;28;19925;-45
2022/09/28 09:40:25;;;;;;;;;;;;;;;13.35;100.00;97105.00;5049803;28;19931;-45
2022/09/28 09:43:06;;;;;;;;;;;;;;;13.10;100.00;97118.03;5051755;28;19921;-44
2022/09/28 09:45:50;;;;;;;;;;;;;;;12.46;100.00;97126.84;5031561;28;19967;-45
2022/09/28 09:48:26;;;;;;;;;;;;;;;12.58;100.00;97139.84;5049892;28;20384;-44
2022/09/28 09:50:56;;;;;;;;;;;;;;;13.00;100.00;97148.91;5033372;28;19934;-45
2022/09/28 09:53:22;;;;;;;;;;;;;;;12.74;100.00;97148.16;5031556;28;20015;-45
2022/09/28 09:55:49;;;;;;;;;;;;;;;12.37;100.00;97158.47;5050602;28;20082;-45
2022/09/28 09:58:14;;;;;;;;;;;;;;;12.90;100.00;97171.97;5049925;28;20278;-45
2022/09/28 10:00:40;;;;;;;;;;;;;;;12.41;100.00;97172.00;5049337;28;19932;-45
2022/09/28 10:03:05;;;;;;;;;;;;;;;12.75;100.00;97185.97;5033059;28;20019;-45
2022/09/28 10:05:30;;;;;;;;;;;;;;;12.27;100.00;97191.84;5029506;28;19924;-45
2022/09/28 10:08:03;;;;;;;;;;;;;;;13.04;100.00;97196.81;5048096;28;19927;-44
2022/09/28 10:10:29;;;;;;;;;;;;;;;13.11;100.00;97198.06;5048238;28;20438;-45
2022/09/28 10:12:54;;;;;;;;;;;;;;;13.24;100.00;97192.81;5032057;28;19921;-45
2022/09/28 10:15:22;;;;;;;;;;;;;;;13.66;100.00;97193.28;5049101;28;19979;-45
2022/09/28 10:17:47;;;;;;;;;;;;;;;13.48;100.00;97189.41;5050014;28;19912;-45
2022/09/28 10:20:15;;;;;;;;;;;;;;;13.11;100.00;97192.03;5033144;28;19927;-45
2022/09/28 10:22:40;;;;;;;;;;;;;;;12.95;100.00;97194.88;5032625;28;20018;-45
2022/09/28 10:25:07;;;;;;;;;;;;;;;13.11;100.00;97192.03;5032994;28;19955;-45
2022/09/28 10:27:33;;;;;;;;;;;;;;;13.56;100.00;97195.69;5032362;28;20305;-45
2022/09/28 10:30:14;;;;;;;;;;;;;;;13.77;100.00;97185.53;5030644;28;19928;-44
2022/09/28 10:32:40;;;;;;;;;;;;;;;13.96;100.00;97169.47;5049576;28;19920;-45
2022/09/28 10:35:13;;;;;;;;;;;;;;;13.69;100.00;97172.34;5031593;28;19920;-45
2022/09/28 10:38:13;;;;;;;;;;;;;;;13.84;100.00;97167.78;5050965;28;19942;-44
2022/09/28 10:40:40;;;;;;;;;;;;;;;14.16;100.00;97170.56;4968697;28;20009;-45
2022/09/28 10:43:14;;;;;;;;;;;;;;;14.22;100.00;97164.91;5018841;28;20345;-44
2022/09/28 10:45:39;;;;;;;;;;;;;;;13.87;100.00;97164.16;5034008;28;19921;-44
2022/09/28 10:48:05;;;;;;;;;;;;;;;13.94;100.00;97167.94;5035460;28;19916;-44
2022/09/28 10:50:30;;;;;;;;;;;;;;;14.32;100.00;97174.53;5037273;28;19916;-45
2022/09/28 10:53:15;;;;;;;;;;;;;;;13.33;100.00;97168.09;5037345;28;19920;-45
2022/09/28 10:55:41;;;;;;;;;;;;;;;14.20;100.00;97171.94;5053116;28;19920;-45
2022/09/28 10:58:32;;;;;;;;;;;;;;;14.19;100.00;97165.13;5035056;28;19923;-44
2022/09/28 11:00:58;;;;;;;;;;;;;;;14.44;100.00;97171.03;5050176;28;20393;-45
2022/09/28 11:03:25;;;;;;;;;;;;;;;14.77;100.00;97171.97;5036531;28;19917;-44
2022/09/28 11:06:03;;;;;;;;;;;;;;;13.61;100.00;97172.06;5050179;28;19917;-44
2022/09/28 11:08:37;;;;;;;;;;;;;;;14.45;100.00;97180.44;5036562;28;19916;-44
2022/09/28 11:11:04;;;;;;;;;;;;;;;14.22;100.00;97180.44;5035472;28;19928;-44
2022/09/28 11:13:29;;;;;;;;;;;;;;;14.54;100.00;97172.00;5053911;28;19924;-44
2022/09/28 11:15:55;;;;;;;;;;;;;;;14.01;100.00;97172.53;5051861;28;20370;-44
2022/09/28 11:18:25;;;;;;;;;;;;;;;14.74;100.00;97180.81;5052773;28;19967;-44
2022/09/28 11:20:50;;;;;;;;;;;;;;;13.89;100.00;97164.84;5053282;28;19924;-44
2022/09/28 11:23:17;;;;;;;;;;;;;;;14.42;100.00;97162.56;5053395;28;19917;-44
2022/09/28 11:25:42;;;;;;;;;;;;;;;14.06;100.00;97169.59;5025716;28;19982;-44
2022/09/28 11:28:12;;;;;;;;;;;;;;;15.45;100.00;97167.41;5036058;28;20350;-44
2022/09/28 11:30:37;;;;;;;;;;;;;;;16.45;100.00;97156.56;5034383;28;19956;-44
2022/09/28 11:33:04;;;;;;;;;;;;;;;15.83;100.00;97140.13;5053375;28;19971;-44
2022/09/28 11:35:30;;;;;;;;;;;;;;;16.29;100.00;97133.66;5034699;28;19955;-45
2022/09/28 11:38:25;;;;;;;;;;;;;;;16.99;100.00;97110.31;5054560;28;19917;-44
2022/09/28 11:41:02;;;;;;;;;;;;;;;16.56;100.00;97104.47;4980721;28;19926;-44
2022/09/28 11:44:06;;;;;;;;;;;;;;;17.39;100.00;97097.19;5052063;28;20661;-44
2022/09/28 11:46:34;;;;;;;;;;;;;;;17.14;100.00;97094.16;4960945;28;20298;-44
2022/09/28 11:49:01;;;;;;;;;;;;;;;15.83;100.00;97106.38;4960941;28;20380;-44
2022/09/28 11:51:28;;;;;;;;;;;;;;;16.67;100.00;97106.13;4985120;28;19928;-45
2022/09/28 11:54:00;;;;;;;;;;;;;;;16.34;100.00;97115.06;5033537;28;19963;-44
2022/09/28 11:56:51;;;;;;;;;;;;;;;15.76;100.00;97121.66;5051313;28;20754;-44
2022/09/28 11:59:27;;;;;;;;;;;;;;;17.37;100.00;97112.09;5047097;28;20366;-44
2022/09/28 12:01:57;;;;;;;;;;;;;;;17.06;100.00;97101.00;5052927;28;19987;-44
2022/09/28 12:04:27;;;;;;;;;;;;;;;16.93;100.00;97109.09;5052146;28;19917;-45
2022/09/28 12:06:55;;;;;;;;;;;;;;;17.07;100.00;97106.09;5033227;28;19981;-44
2022/09/28 12:09:27;;;;;;;;;;;;;;;17.33;100.00;97097.72;5033198;28;19976;-44
2022/09/28 12:11:57;;;;;;;;;;;;;;;16.47;100.00;97119.09;5052175;28;20468;-45
2022/09/28 12:14:25;;;;;;;;;;;;;;;15.96;100.00;97121.75;5052639;28;19920;-45
2022/09/28 12:17:01;;;;;;;;;;;;;;;16.65;100.00;97106.28;5033258;28;20381;-45
2022/09/28 12:19:31;;;;;;;;;;;;;;;16.49;100.00;97113.78;5051528;28;20404;-44
2022/09/28 12:21:58;;;;;;;;;;;;;;;15.43;100.00;97110.47;5033566;28;20035;-44
2022/09/28 12:24:26;;;;;;;;;;;;;;;15.82;100.00;97126.31;5052415;28;19966;-44
2022/09/28 12:26:52;;;;;;;;;;;;;;;15.78;100.00;97114.56;5034509;28;20286;-44
2022/09/28 12:29:19;;;;;;;;;;;;;;;16.70;100.00;97114.50;5051815;28;19920;-45
2022/09/28 12:31:49;;;;;;;;;;;;;;;16.42;100.00;97112.63;5051869;28;19920;-44
2022/09/28 12:34:15;;;;;;;;;;;;;;;16.26;100.00;97113.13;5052025;28;19920;-44
2022/09/28 12:36:40;;;;;;;;;;;;;;;17.12;100.00;97100.47;5050116;28;19925;-44
2022/09/28 12:39:08;;;;;;;;;;;;;;;17.33;100.00;97087.31;5052164;28;19971;-45
2022/09/28 12:41:43;;;;;;;;;;;;;;;17.34;100.00;97089.78;5052009;28;19925;-44
2022/09/28 12:44:23;;;;;;;;;;;;;;;16.58;100.00;97092.19;5053152;28;19952;-45
2022/09/28 12:47:04;;;;;;;;;;;;;;;17.25;100.00;97084.59;5051497;28;19920;-44